Flight Track Log - Related Links

Times and Time Zones

All times are in EDT time to prevent confusion due to time zone crossing. See the UAL4336 flight status page for this flight to view local times or setup timezone preferences in your user account.

Time Position Orientation Groundspeed Altitude Reporting Facility
EDT Latitude Longitude Course Direction KTS MPH feet Rate Location/Type
Sun 09:54:57 AM 29.9661 -95.3456 90° East 150 173 600  Level Houston Center
Sun 09:56:04 AM 29.9394 -95.2836 116° Southeast 238 274 2,800 2,087 Climbing Houston Center
Sun 09:57:15 AM 29.9522 -95.1892 81° East 265 305 5,400 2,430 Climbing Houston Center
Sun 09:58:00 AM 29.9834 -94.8732 90° East  Level FlightAware Approximate
Sun 09:58:05 AM 29.9564 -95.1056 87° East 288 331 7,700  Level Houston Center
Sun 09:59:00 AM 29.9834 -94.7581 90° East  Level FlightAware Approximate
Sun 09:59:12 AM 29.9611 -94.9986 87° East 314 361 10,300  Level Houston Center
Sun 10:00:00 AM 29.9833 -94.6431 90° East  Level FlightAware Approximate
Sun 10:00:18 AM 29.9689 -94.8892 85° East 333 383 11,500  Level Houston Center
Sun 10:01:20 AM 29.9756 -94.7678 86° East 373 429 12,600 1,073 Climbing Houston Center
Sun 10:02:21 AM 29.9828 -94.6397 86° East 395 455 13,700 1,033 Climbing Houston Center
Sun 10:03:22 AM 29.9892 -94.5083 87° East 409 471 14,700 1,033 Climbing Houston Center
Sun 10:04:23 AM 29.9947 -94.3628 87° East 419 482 15,800 1,131 Climbing Houston Center
Sun 10:05:24 AM 30.0056 -94.2269 85° East 425 489 17,000 1,279 Climbing Houston Center
Sun 10:06:25 AM 30.0219 -94.0911 82° East 429 494 18,400 1,268 Climbing Houston Center
Sun 10:07:27 AM 30.0397 -93.9553 81° East 431 496 19,600 1,171 Climbing Houston Center
Sun 10:08:28 AM 30.0572 -93.8164 82° East 440 506 20,800 1,328 Climbing Houston Center
Sun 10:09:29 AM 30.0764 -93.6481 82° East 446 513 22,300 1,082 Climbing Houston Center
Sun 10:10:30 AM 30.0925 -93.5056 83° East 454 522 23,000 341 Climbing Houston Center
Sun 10:11:32 AM 30.1106 -93.3581 82° East 472 543 23,000  Level Houston Center
Sun 10:12:33 AM 30.1289 -93.2069 82° East 481 554 23,000  Level Houston Center
Sun 10:13:34 AM 30.1486 -93.0556 81° East 481 554 23,000 -49 Level Houston Center
Sun 10:14:35 AM 30.1536 -92.9103 88° East 457 526 22,900  Descending Houston Center
Sun 10:15:37 AM 30.1356 -92.7631 98° East 464 534 23,000 -293 Climbing Houston Center
Sun 10:16:38 AM 30.1128 -92.5842 98° East 472 543 22,300 -836 Descending Houston Center
Sun 10:17:39 AM 30.0947 -92.4389 98° East 461 531 21,300 -1,024 Descending Houston Center
Sun 10:18:41 AM 30.0794 -92.3000 97° East 440 506 20,200 -1,024 Descending Houston Center
Sun 10:19:42 AM 30.0619 -92.1611 98° East 438 504 19,200 -639 Descending Houston Center
Sun 10:20:43 AM 30.0475 -92.0200 97° East 444 511 18,900 -96 Descending Houston Center
Sun 10:21:47 AM 30.0314 -91.8786 97° East 444 511 19,000 -98 Climbing Houston Center
Sun 10:22:46 AM 30.0153 -91.7358 97° East 448 516 18,700 -700 Descending Houston Center
Sun 10:23:47 AM 30.0011 -91.5972 97° East 443 510 17,600 -1,113 Descending Houston Center
Sun 10:24:50 AM 29.9853 -91.4558 97° East 444 511 16,400 -1,463 Descending Houston Center
Sun 10:25:50 AM 30.0322 -91.3222 68° East 405 466 14,600 -1,918 Descending Houston Center
Sun 10:26:52 AM 30.1247 -91.2858 19° North 362 417 12,500 -1,756 Descending Houston Center
Sun 10:27:53 AM 30.2136 -91.2589 15° North 343 395 11,000 -1,918 Descending Houston Center
Sun 10:28:54 AM 30.2844 -91.2839 343° North 288 331 8,600 -2,439 Descending Houston Center
Sun 10:29:56 AM 30.3514 -91.3158 338° Northwest 269 310 6,000 -2,780 Descending Houston Center
Sun 10:30:57 AM 30.4117 -91.2858 23° Northeast 258 297 2,900 -3,049 Descending Houston Center

Login

Don't have an account? Register now (free) for customized features, flight alerts, and more!